createdAt,value
2022-08-16T00:00:20.156Z,20.09
2022-08-16T00:02:51.788Z,20.04
2022-08-16T00:05:20.703Z,19.93
2022-08-16T00:07:49.942Z,20.00
2022-08-16T00:10:25.475Z,20.23
2022-08-16T00:12:55.419Z,20.35
2022-08-16T00:15:51.499Z,20.41
2022-08-16T00:18:17.324Z,20.45
2022-08-16T00:20:47.893Z,20.52
2022-08-16T00:23:19.084Z,20.47
2022-08-16T00:26:35.768Z,20.46
2022-08-16T00:28:54.931Z,20.42
2022-08-16T00:31:24.178Z,20.39
2022-08-16T00:33:52.835Z,20.36
2022-08-16T00:36:21.102Z,20.32
2022-08-16T00:38:49.285Z,20.29
2022-08-16T00:41:17.705Z,20.27
2022-08-16T00:43:47.377Z,20.25
2022-08-16T00:46:33.654Z,20.20
2022-08-16T00:49:05.075Z,20.19
2022-08-16T00:51:33.909Z,20.21
2022-08-16T00:54:02.247Z,19.93
2022-08-16T00:56:57.553Z,20.10
2022-08-16T00:59:24.257Z,20.08
2022-08-16T01:01:53.943Z,20.11
2022-08-16T01:04:29.195Z,19.90
2022-08-16T01:07:02.413Z,20.13
2022-08-16T01:09:33.679Z,20.06
2022-08-16T01:12:04.276Z,20.04
2022-08-16T01:14:39.356Z,20.06
2022-08-16T01:17:13.365Z,20.05
2022-08-16T01:19:45.812Z,19.99
2022-08-16T01:22:57.621Z,19.92
2022-08-16T01:25:12.312Z,19.87
2022-08-16T01:27:44.029Z,19.73
2022-08-16T01:30:20.447Z,19.66
2022-08-16T01:33:01.343Z,19.60
2022-08-16T01:35:44.597Z,19.46
2022-08-16T01:38:19.930Z,19.43
2022-08-16T01:40:52.263Z,19.38
2022-08-16T01:43:21.538Z,19.35
2022-08-16T01:45:57.796Z,19.29
2022-08-16T01:48:31.371Z,19.28
2022-08-16T01:51:09.657Z,19.25
2022-08-16T01:53:45.341Z,19.24
2022-08-16T01:56:25.890Z,19.27
2022-08-16T01:58:57.090Z,19.16
2022-08-16T02:01:26.239Z,19.21
2022-08-16T02:03:58.467Z,19.18
2022-08-16T02:06:45.884Z,19.09
2022-08-16T02:09:14.877Z,19.29
2022-08-16T02:11:53.361Z,19.23
2022-08-16T02:14:26.663Z,19.25
2022-08-16T02:16:56.519Z,19.25
2022-08-16T02:19:58.790Z,19.27
2022-08-16T02:22:33.874Z,19.26
2022-08-16T02:25:09.860Z,19.33
2022-08-16T02:27:40.887Z,19.36
2022-08-16T02:30:36.074Z,19.37
2022-08-16T02:33:04.026Z,19.36
2022-08-16T02:35:33.325Z,19.42
2022-08-16T02:38:08.347Z,19.37
2022-08-16T02:40:37.451Z,19.22
2022-08-16T02:43:07.610Z,19.44
2022-08-16T02:45:36.758Z,19.42
2022-08-16T02:48:30.635Z,19.38
2022-08-16T02:51:06.133Z,19.40
2022-08-16T02:53:43.253Z,19.35
2022-08-16T02:56:15.069Z,19.31
2022-08-16T02:58:45.605Z,19.04
2022-08-16T03:01:25.430Z,19.13
2022-08-16T03:04:39.998Z,19.27
2022-08-16T03:06:56.802Z,19.28
2022-08-16T03:09:28.678Z,19.28
2022-08-16T03:11:58.273Z,19.25
2022-08-16T03:14:30.565Z,19.25
2022-08-16T03:17:00.714Z,19.28
2022-08-16T03:19:47.654Z,19.29
2022-08-16T03:22:28.796Z,19.28
2022-08-16T03:25:02.040Z,19.27
2022-08-16T03:27:32.415Z,19.20
2022-08-16T03:30:16.432Z,19.11
2022-08-16T03:32:47.431Z,19.03
2022-08-16T03:35:17.647Z,19.15
2022-08-16T03:38:01.484Z,19.17
2022-08-16T03:40:31.728Z,19.17
2022-08-16T03:43:20.599Z,19.20
2022-08-16T03:45:52.712Z,19.21
2022-08-16T03:48:36.896Z,19.19
2022-08-16T03:51:12.063Z,19.16
2022-08-16T03:53:41.671Z,19.16
2022-08-16T03:56:19.578Z,19.07
2022-08-16T03:58:50.851Z,19.11
2022-08-16T04:01:23.328Z,19.17
2022-08-16T04:03:52.921Z,18.91
2022-08-16T04:06:23.429Z,19.15
2022-08-16T04:08:51.989Z,19.17
2022-08-16T04:11:23.639Z,19.15
2022-08-16T04:14:00.120Z,19.11
2022-08-16T04:16:38.790Z,19.13
2022-08-16T04:19:07.051Z,19.00
2022-08-16T04:21:47.244Z,19.20
2022-08-16T04:24:15.954Z,18.97
2022-08-16T04:26:46.510Z,19.26
2022-08-16T04:29:23.904Z,19.28
2022-08-16T04:31:57.939Z,19.30
2022-08-16T04:34:31.243Z,19.26
2022-08-16T04:37:01.448Z,19.30
2022-08-16T04:39:46.242Z,19.31
2022-08-16T04:42:16.391Z,19.32
2022-08-16T04:44:53.673Z,19.10
2022-08-16T04:47:32.967Z,19.34
2022-08-16T04:50:03.916Z,19.31
2022-08-16T04:52:35.823Z,19.28
2022-08-16T04:55:09.789Z,19.24
2022-08-16T04:57:41.287Z,19.11
2022-08-16T05:00:32.446Z,19.35
2022-08-16T05:03:07.618Z,19.40
2022-08-16T05:05:44.728Z,19.37
2022-08-16T05:08:29.700Z,19.45
2022-08-16T05:11:01.268Z,19.49
2022-08-16T05:13:40.753Z,19.52
2022-08-16T05:16:19.845Z,19.57
2022-08-16T05:18:51.208Z,19.58
2022-08-16T05:21:21.674Z,19.55
2022-08-16T05:23:55.427Z,19.51
2022-08-16T05:26:27.763Z,19.55
2022-08-16T05:28:57.050Z,19.60
2022-08-16T05:31:29.948Z,19.37
2022-08-16T05:34:03.020Z,19.62
2022-08-16T05:36:34.412Z,19.62
2022-08-16T05:39:06.654Z,19.67
2022-08-16T05:41:45.603Z,19.76
2022-08-16T05:44:23.902Z,19.82
2022-08-16T05:46:55.784Z,19.85
2022-08-16T05:49:38.318Z,19.97
2022-08-16T05:52:10.573Z,20.01
2022-08-16T05:54:46.009Z,20.05
2022-08-16T05:57:16.735Z,20.19
2022-08-16T05:59:47.468Z,20.13
2022-08-16T06:02:28.913Z,20.04
2022-08-16T06:05:02.307Z,20.05
2022-08-16T06:07:32.859Z,20.09
2022-08-16T06:10:01.549Z,20.16
2022-08-16T06:12:31.048Z,20.29
2022-08-16T06:15:01.855Z,20.40
2022-08-16T06:17:42.833Z,20.60
2022-08-16T06:20:18.567Z,20.63
2022-08-16T06:22:58.781Z,20.98
2022-08-16T06:25:36.643Z,21.02
2022-08-16T06:28:10.074Z,21.22
2022-08-16T06:30:43.954Z,21.03
2022-08-16T06:33:22.111Z,21.08
2022-08-16T06:35:54.972Z,20.78
2022-08-16T06:38:32.728Z,20.92
2022-08-16T06:41:04.956Z,20.95
2022-08-16T06:43:34.585Z,21.23
2022-08-16T06:46:10.751Z,21.46
2022-08-16T06:48:43.171Z,21.64
2022-08-16T06:51:14.862Z,21.48
2022-08-16T06:53:43.286Z,21.28
2022-08-16T06:56:14.648Z,21.10
2022-08-16T06:58:52.651Z,21.71
2022-08-16T07:01:43.367Z,21.68
2022-08-16T07:04:12.073Z,21.78
2022-08-16T07:06:43.597Z,21.71
2022-08-16T07:09:15.883Z,21.90
2022-08-16T07:11:47.970Z,21.73
2022-08-16T07:14:24.198Z,21.75
2022-08-16T07:16:54.024Z,21.67
2022-08-16T07:19:23.125Z,21.95
2022-08-16T07:22:38.385Z,21.90
2022-08-16T07:25:01.253Z,22.03
2022-08-16T07:27:32.142Z,21.90
2022-08-16T07:30:02.393Z,21.78
2022-08-16T07:32:32.893Z,21.64
2022-08-16T07:35:03.265Z,21.84
2022-08-16T07:37:32.871Z,22.13
2022-08-16T07:40:01.299Z,22.28
2022-08-16T07:42:39.503Z,22.62
2022-08-16T07:45:10.144Z,22.58
2022-08-16T07:47:38.783Z,22.77
2022-08-16T07:50:56.830Z,22.90
2022-08-16T07:53:01.932Z,22.93
2022-08-16T07:55:45.517Z,23.01
2022-08-16T07:58:18.390Z,23.09
2022-08-16T08:01:10.166Z,23.05
2022-08-16T08:03:47.621Z,23.26
2022-08-16T08:06:18.272Z,23.34
2022-08-16T08:08:52.748Z,23.47
2022-08-16T08:11:28.779Z,22.95
2022-08-16T08:14:03.609Z,23.08
2022-08-16T08:16:32.832Z,23.47
2022-08-16T08:19:02.582Z,23.69
2022-08-16T08:21:58.461Z,23.32
2022-08-16T08:24:31.839Z,23.41
2022-08-16T08:27:02.176Z,23.83
2022-08-16T08:29:37.696Z,23.95
2022-08-16T08:32:58.178Z,23.83
2022-08-16T08:35:00.368Z,23.93
2022-08-16T08:37:55.039Z,23.65
2022-08-16T08:40:24.733Z,23.84
2022-08-16T08:43:00.457Z,24.01
2022-08-16T08:45:48.574Z,23.90
2022-08-16T08:48:32.944Z,23.78
2022-08-16T08:51:08.720Z,24.25
2022-08-16T08:53:37.888Z,24.45
2022-08-16T08:56:22.984Z,24.56
2022-08-16T08:58:53.679Z,24.94
2022-08-16T09:01:31.708Z,25.04
2022-08-16T09:04:06.114Z,24.93
2022-08-16T09:06:35.045Z,25.11
2022-08-16T09:09:04.357Z,25.20
2022-08-16T09:11:41.122Z,25.59
2022-08-16T09:14:24.717Z,25.69
2022-08-16T09:17:01.646Z,25.22
2022-08-16T09:19:33.910Z,25.27
2022-08-16T09:22:02.457Z,25.49
2022-08-16T09:24:48.813Z,25.50
2022-08-16T09:27:20.472Z,25.65
2022-08-16T09:29:49.209Z,25.39
2022-08-16T09:32:30.898Z,25.19
2022-08-16T09:34:59.661Z,25.72
2022-08-16T09:37:29.824Z,25.85
2022-08-16T09:39:59.460Z,25.75
2022-08-16T09:42:30.374Z,25.89
2022-08-16T09:45:18.796Z,25.74
2022-08-16T09:47:56.093Z,26.00
2022-08-16T09:50:37.003Z,26.27
2022-08-16T09:53:16.793Z,26.50
2022-08-16T09:55:49.422Z,26.87
2022-08-16T09:58:40.832Z,26.43
2022-08-16T10:01:11.165Z,26.57
2022-08-16T10:04:02.482Z,26.74
2022-08-16T10:06:33.474Z,27.04
2022-08-16T10:09:05.551Z,27.51
2022-08-16T10:11:52.551Z,27.49
2022-08-16T10:14:24.962Z,27.23
2022-08-16T10:17:03.491Z,27.65
2022-08-16T10:19:32.566Z,27.47
2022-08-16T10:22:04.977Z,27.22
2022-08-16T10:24:36.323Z,27.50
2022-08-16T10:27:26.544Z,27.97
2022-08-16T10:30:00.129Z,27.86
2022-08-16T10:32:31.991Z,27.96
2022-08-16T10:35:02.129Z,27.89
2022-08-16T10:37:35.818Z,27.90
2022-08-16T10:40:06.569Z,28.20
2022-08-16T10:42:54.658Z,28.09
2022-08-16T10:45:25.471Z,28.40
2022-08-16T10:48:03.421Z,28.16
2022-08-16T10:50:33.748Z,28.43
2022-08-16T10:53:07.508Z,28.51
2022-08-16T10:55:41.000Z,28.45
2022-08-16T10:58:17.401Z,28.62
2022-08-16T11:00:54.237Z,29.12
2022-08-16T11:03:44.562Z,29.44
2022-08-16T11:06:14.499Z,29.32
2022-08-16T11:08:45.769Z,29.09
2022-08-16T11:11:19.683Z,29.36
2022-08-16T11:14:11.026Z,29.37
2022-08-16T11:19:30.262Z,29.25
2022-08-16T11:22:38.658Z,29.27
2022-08-16T11:25:11.460Z,29.36
2022-08-16T11:27:47.190Z,28.79
2022-08-16T11:30:19.859Z,28.81
2022-08-16T11:32:50.023Z,29.29
2022-08-16T11:35:43.412Z,29.93
2022-08-16T11:38:47.424Z,29.58
2022-08-16T11:41:03.462Z,29.52
2022-08-16T11:43:34.143Z,29.80
2022-08-16T11:46:34.228Z,29.91
2022-08-16T11:48:54.911Z,30.10
2022-08-16T11:51:24.293Z,30.49
2022-08-16T11:53:53.142Z,30.50
2022-08-16T11:56:39.596Z,30.95
2022-08-16T11:59:10.443Z,30.88
2022-08-16T12:01:44.565Z,31.23
2022-08-16T12:04:25.796Z,30.85
2022-08-16T12:06:54.760Z,30.12
2022-08-16T12:09:24.859Z,29.84
2022-08-16T12:11:58.370Z,29.47
2022-08-16T12:14:35.338Z,29.45
2022-08-16T12:17:06.162Z,29.58
2022-08-16T12:19:38.298Z,29.55
2022-08-16T12:22:19.075Z,29.58
2022-08-16T12:24:52.250Z,29.55
2022-08-16T12:27:24.342Z,29.54
2022-08-16T12:29:52.919Z,29.27
2022-08-16T12:32:35.891Z,29.03
2022-08-16T12:35:10.646Z,28.95
2022-08-16T12:37:38.995Z,28.82
2022-08-16T12:40:24.724Z,28.67
2022-08-16T12:42:58.464Z,28.63
2022-08-16T12:45:29.005Z,28.24
2022-08-16T12:48:33.728Z,28.07
2022-08-16T12:51:10.891Z,28.16
2022-08-16T12:53:47.777Z,28.66
2022-08-16T12:56:19.419Z,29.01
2022-08-16T12:58:51.973Z,28.96
2022-08-16T13:01:22.697Z,28.56
2022-08-16T13:04:08.195Z,28.87
2022-08-16T13:06:42.236Z,29.23
2022-08-16T13:09:23.407Z,29.33
2022-08-16T13:12:00.415Z,28.99
2022-08-16T13:14:32.892Z,28.63
2022-08-16T13:17:02.996Z,28.49
2022-08-16T13:19:56.291Z,28.43
2022-08-16T13:22:24.294Z,28.04
2022-08-16T13:24:53.337Z,27.77
2022-08-16T13:27:59.378Z,27.74
2022-08-16T13:30:11.500Z,27.90
2022-08-16T13:32:59.793Z,28.07
2022-08-16T13:35:34.373Z,28.38
2022-08-16T13:38:04.173Z,28.81
2022-08-16T13:40:34.502Z,29.17
2022-08-16T13:43:03.192Z,29.16
2022-08-16T13:45:36.305Z,29.37
2022-08-16T13:48:06.596Z,29.27
2022-08-16T13:50:49.248Z,29.26
2022-08-16T13:53:24.362Z,29.08
2022-08-16T13:55:57.815Z,28.94
2022-08-16T13:58:36.450Z,28.88
2022-08-16T14:01:09.666Z,29.43
2022-08-16T14:03:39.847Z,29.59
2022-08-16T14:06:10.601Z,29.44
2022-08-16T14:08:41.974Z,29.68
2022-08-16T14:11:12.183Z,29.74
2022-08-16T14:13:40.781Z,29.71
2022-08-16T14:16:23.456Z,29.54
2022-08-16T14:18:53.054Z,29.25
2022-08-16T14:21:22.051Z,29.11
2022-08-16T14:23:53.551Z,28.87
2022-08-16T14:26:21.753Z,28.51
2022-08-16T14:28:53.282Z,28.51
2022-08-16T14:31:23.619Z,29.01
2022-08-16T14:33:51.861Z,29.36
2022-08-16T14:36:29.419Z,29.28
2022-08-16T14:38:59.906Z,29.62
2022-08-16T14:41:28.436Z,29.92
2022-08-16T14:43:56.805Z,30.06
2022-08-16T14:46:25.092Z,29.95
2022-08-16T14:48:54.086Z,29.95
2022-08-16T14:51:23.257Z,30.31
2022-08-16T14:53:56.882Z,30.58
2022-08-16T14:56:43.085Z,30.85
2022-08-16T14:59:14.953Z,30.40
2022-08-16T15:01:58.920Z,30.64
2022-08-16T15:04:40.518Z,30.68
2022-08-16T15:07:17.806Z,30.84
2022-08-16T15:10:00.525Z,30.75
2022-08-16T15:12:33.521Z,30.68
2022-08-16T15:15:04.621Z,30.73
2022-08-16T15:17:41.240Z,30.73
2022-08-16T15:20:11.324Z,30.43
2022-08-16T15:22:41.601Z,30.47
2022-08-16T15:25:13.353Z,30.43
2022-08-16T15:27:54.860Z,30.34
2022-08-16T15:30:58.411Z,30.47
2022-08-16T15:33:16.939Z,29.96
2022-08-16T15:35:46.320Z,30.31
2022-08-16T15:38:54.906Z,30.37
2022-08-16T15:41:03.809Z,30.37
2022-08-16T15:43:38.872Z,30.50
2022-08-16T15:46:55.868Z,30.34
2022-08-16T15:49:15.532Z,30.48
2022-08-16T15:51:46.120Z,30.13
2022-08-16T15:54:20.913Z,29.83
2022-08-16T15:57:09.633Z,29.84
2022-08-16T15:59:49.207Z,29.99
2022-08-16T16:02:29.683Z,30.10
2022-08-16T16:05:01.716Z,30.20
2022-08-16T16:07:33.223Z,30.32
2022-08-16T16:10:02.792Z,30.29
2022-08-16T16:12:51.126Z,30.47
2022-08-16T16:15:22.876Z,30.27
2022-08-16T16:17:53.136Z,30.20
2022-08-16T16:20:24.338Z,30.10
2022-08-16T16:22:53.553Z,30.23
2022-08-16T16:25:21.742Z,30.36
2022-08-16T16:27:55.923Z,30.31
2022-08-16T16:30:37.274Z,30.27
2022-08-16T16:33:15.639Z,30.32
2022-08-16T16:35:55.663Z,30.06
2022-08-16T16:38:30.775Z,30.05
2022-08-16T16:41:04.798Z,30.00
2022-08-16T16:43:40.500Z,29.82
2022-08-16T16:46:43.039Z,29.77
2022-08-16T16:49:03.017Z,29.28
2022-08-16T16:51:32.461Z,28.93
2022-08-16T16:54:12.824Z,28.59
2022-08-16T16:56:46.111Z,28.32
2022-08-16T16:59:19.959Z,28.19
2022-08-16T17:01:57.813Z,28.06
2022-08-16T17:04:39.143Z,27.83
2022-08-16T17:07:11.134Z,27.64
2022-08-16T17:09:41.029Z,27.30
2022-08-16T17:12:10.256Z,26.99
2022-08-16T17:14:48.351Z,26.49
2022-08-16T17:17:17.956Z,26.17
2022-08-16T17:19:46.122Z,25.98
2022-08-16T17:22:19.892Z,25.81
2022-08-16T17:24:50.776Z,25.35
2022-08-16T17:27:33.141Z,25.09
2022-08-16T17:30:15.903Z,24.94
2022-08-16T17:32:50.649Z,24.68
2022-08-16T17:35:33.768Z,24.46
2022-08-16T17:38:07.247Z,24.45
2022-08-16T17:40:47.450Z,24.29
2022-08-16T17:43:27.999Z,24.04
2022-08-16T17:45:57.772Z,24.14
2022-08-16T17:48:27.623Z,24.12
2022-08-16T17:50:55.879Z,24.08
2022-08-16T17:53:24.401Z,23.90
2022-08-16T17:55:54.649Z,23.91
2022-08-16T17:58:24.371Z,23.89
2022-08-16T18:00:54.797Z,23.89
2022-08-16T18:03:40.812Z,23.80
2022-08-16T18:06:18.556Z,23.68
2022-08-16T18:08:52.178Z,23.56
2022-08-16T18:11:26.480Z,23.40
2022-08-16T18:13:55.560Z,23.32
2022-08-16T18:16:24.269Z,23.13
2022-08-16T18:18:52.539Z,22.74
2022-08-16T18:21:39.963Z,22.64
2022-08-16T18:24:08.870Z,22.49
2022-08-16T18:26:37.419Z,22.33
2022-08-16T18:29:06.003Z,22.05
2022-08-16T18:31:34.172Z,22.10
2022-08-16T18:34:02.820Z,21.97
2022-08-16T18:36:33.427Z,21.84
2022-08-16T18:39:02.036Z,22.11
2022-08-16T18:41:30.539Z,22.15
2022-08-16T18:44:25.686Z,22.12
2022-08-16T18:46:50.975Z,21.92
2022-08-16T18:49:20.192Z,21.87
2022-08-16T18:51:50.967Z,21.81
2022-08-16T18:54:19.360Z,21.83
2022-08-16T18:56:54.224Z,21.89
2022-08-16T18:59:26.900Z,21.95
2022-08-16T19:01:55.484Z,21.99
2022-08-16T19:04:49.027Z,21.99
2022-08-16T19:07:18.952Z,21.87
2022-08-16T19:09:47.237Z,21.97
2022-08-16T19:12:15.909Z,21.98
2022-08-16T19:14:45.507Z,22.00
2022-08-16T19:17:16.122Z,21.89
2022-08-16T19:19:46.768Z,21.68
2022-08-16T19:22:14.979Z,21.78
2022-08-16T19:24:44.536Z,21.51
2022-08-16T19:27:13.953Z,21.68
2022-08-16T19:29:42.405Z,21.67
2022-08-16T19:32:18.261Z,21.65
2022-08-16T19:34:46.646Z,21.63
2022-08-16T19:37:14.824Z,21.57
2022-08-16T19:39:44.532Z,21.53
2022-08-16T19:42:16.843Z,21.49
2022-08-16T19:44:46.807Z,21.40
2022-08-16T19:47:15.177Z,21.30
2022-08-16T19:49:43.679Z,21.15
2022-08-16T19:52:14.704Z,21.04
2022-08-16T19:54:44.601Z,20.93
2022-08-16T19:57:13.528Z,20.87
2022-08-16T19:59:45.063Z,20.84
2022-08-16T20:02:32.634Z,20.82
2022-08-16T20:05:06.041Z,20.74
2022-08-16T20:07:34.303Z,20.64
2022-08-16T20:10:04.916Z,20.70
2022-08-16T20:12:36.187Z,20.52
2022-08-16T20:15:04.681Z,20.64
2022-08-16T20:17:32.939Z,20.62
2022-08-16T20:20:01.244Z,20.63
2022-08-16T20:22:52.344Z,20.63
2022-08-16T20:25:29.846Z,20.59
2022-08-16T20:27:59.730Z,20.56
2022-08-16T20:30:28.285Z,20.56
2022-08-16T20:32:56.492Z,20.53
2022-08-16T20:35:27.442Z,20.57
2022-08-16T20:37:55.988Z,20.54
2022-08-16T20:40:35.094Z,20.52
2022-08-16T20:43:07.239Z,20.29
2022-08-16T20:45:35.836Z,20.49
2022-08-16T20:48:04.991Z,20.52
2022-08-16T20:50:33.584Z,20.47
2022-08-16T20:53:01.905Z,20.40
2022-08-16T20:55:31.612Z,20.37
2022-08-16T20:58:00.261Z,20.38
2022-08-16T21:00:29.093Z,20.34
2022-08-16T21:02:58.533Z,20.31
2022-08-16T21:05:31.332Z,20.21
2022-08-16T21:08:00.854Z,20.21
2022-08-16T21:10:29.104Z,20.13
2022-08-16T21:13:02.684Z,20.00
2022-08-16T21:15:32.823Z,19.81
2022-08-16T21:18:01.646Z,19.66
2022-08-16T21:20:29.821Z,19.59
2022-08-16T21:22:59.726Z,19.53
2022-08-16T21:25:28.110Z,19.53
2022-08-16T21:28:41.348Z,19.53
2022-08-16T21:30:47.967Z,19.43
2022-08-16T21:33:17.642Z,19.44
2022-08-16T21:35:47.382Z,19.44
2022-08-16T21:38:29.053Z,19.40
2022-08-16T21:40:59.060Z,19.48
2022-08-16T21:43:32.021Z,19.51
2022-08-16T21:46:00.866Z,19.46
2022-08-16T21:48:35.195Z,19.52
2022-08-16T21:51:05.375Z,19.46
2022-08-16T21:53:33.671Z,19.43
2022-08-16T21:56:01.956Z,19.49
2022-08-16T21:58:31.939Z,19.49
2022-08-16T22:01:00.613Z,19.51
2022-08-16T22:03:30.082Z,19.05
2022-08-16T22:06:11.075Z,19.47
2022-08-16T22:08:48.800Z,19.35
2022-08-16T22:11:22.288Z,19.25
2022-08-16T22:13:58.823Z,19.14
2022-08-16T22:16:30.238Z,19.10
2022-08-16T22:18:58.515Z,18.84
2022-08-16T22:21:26.750Z,18.85
2022-08-16T22:23:57.953Z,18.96
2022-08-16T22:26:29.150Z,19.09
2022-08-16T22:29:01.228Z,19.07
2022-08-16T22:31:29.552Z,19.04
2022-08-16T22:33:58.025Z,18.99
2022-08-16T22:36:27.930Z,18.97
2022-08-16T22:38:58.668Z,18.80
2022-08-16T22:41:31.215Z,19.00
2022-08-16T22:44:01.223Z,18.90
2022-08-16T22:46:30.377Z,18.90
2022-08-16T22:48:59.017Z,18.92
2022-08-16T22:51:28.787Z,18.94
2022-08-16T22:53:57.511Z,18.97
2022-08-16T22:56:26.272Z,18.92
2022-08-16T22:58:54.527Z,18.85
2022-08-16T23:01:25.938Z,18.82
2022-08-16T23:03:55.356Z,18.73
2022-08-16T23:06:24.176Z,18.62
2022-08-16T23:08:52.502Z,18.61
2022-08-16T23:11:23.052Z,18.63
2022-08-16T23:13:53.732Z,18.44
2022-08-16T23:16:32.507Z,18.64
2022-08-16T23:19:02.478Z,18.66
2022-08-16T23:21:30.642Z,18.61
2022-08-16T23:23:58.829Z,18.57
2022-08-16T23:26:44.974Z,18.38
2022-08-16T23:29:23.475Z,18.54
2022-08-16T23:31:58.273Z,18.44
2022-08-16T23:34:27.932Z,18.51
2022-08-16T23:36:56.332Z,18.47
2022-08-16T23:39:24.950Z,18.39
2022-08-16T23:41:53.243Z,18.22
2022-08-16T23:44:55.060Z,18.38
2022-08-16T23:47:11.011Z,18.37
2022-08-16T23:49:58.105Z,18.31
2022-08-16T23:52:54.738Z,18.29
2022-08-16T23:55:16.268Z,18.29
2022-08-16T23:57:45.170Z,18.33
